Time;durP1;ratioP1;P1;durP2;ratioP2;P2;SDS_P1;SDS_P2;PMS_P1;PMS_P2;Temp;Humidity;BMP_temperature;BMP_pressure;BME280_temperature;BME280_humidity;BME280_pressure;Samples;Min_cycle;Max_cycle;Signal;HPM_P1;HPM_P2
2022/03/16 00:01:43;;;;;;;25.80;13.80;;;5.20;99.90;;;;;;5027731;28;20176;-59
2022/03/16 00:04:08;;;;;;;24.67;14.17;;;5.20;99.90;;;;;;5019954;28;20199;-59
2022/03/16 00:06:34;;;;;;;29.30;14.37;;;5.20;99.90;;;;;;5025406;28;20191;-57
2022/03/16 00:09:00;;;;;;;27.07;14.03;;;5.20;99.90;;;;;;5031040;28;20198;-59
2022/03/16 00:11:25;;;;;;;28.10;15.63;;;5.20;99.90;;;;;;5030600;28;20174;-56
2022/03/16 00:13:51;;;;;;;31.07;14.30;;;5.20;99.90;;;;;;5026376;28;20569;-58
2022/03/16 00:16:17;;;;;;;32.93;15.80;;;5.20;99.90;;;;;;5028092;28;20261;-57
2022/03/16 00:18:42;;;;;;;44.70;15.27;;;5.20;99.90;;;;;;5027222;28;20182;-58
2022/03/16 00:21:08;;;;;;;24.50;13.80;;;5.20;99.90;;;;;;5028655;28;20176;-56
2022/03/16 00:23:34;;;;;;;30.87;14.30;;;5.10;99.90;;;;;;5028170;28;20176;-58
2022/03/16 00:26:00;;;;;;;47.20;15.67;;;5.10;99.90;;;;;;5025293;28;20477;-59
2022/03/16 00:28:26;;;;;;;39.03;14.60;;;5.10;99.90;;;;;;5033254;28;20590;-59
2022/03/16 00:30:51;;;;;;;89.87;16.07;;;5.10;99.90;;;;;;5031281;28;20426;-57
2022/03/16 00:33:17;;;;;;;58.17;16.03;;;5.10;99.90;;;;;;5020572;28;20246;-58
2022/03/16 00:35:43;;;;;;;44.83;14.43;;;5.10;99.90;;;;;;5026340;28;20195;-59
2022/03/16 00:38:09;;;;;;;30.80;13.17;;;5.10;99.90;;;;;;5023962;28;20233;-58
2022/03/16 00:40:36;;;;;;;21.07;12.60;;;5.10;99.90;;;;;;5027439;28;20172;-57
2022/03/16 00:43:01;;;;;;;45.17;12.87;;;5.10;99.90;;;;;;5016109;28;20821;-59
2022/03/16 00:45:27;;;;;;;38.63;14.90;;;5.00;99.90;;;;;;5023524;28;20467;-59
2022/03/16 00:47:53;;;;;;;27.00;14.37;;;5.00;99.90;;;;;;5025399;28;20172;-59
2022/03/16 00:50:18;;;;;;;27.80;14.67;;;5.00;99.90;;;;;;5023367;28;20218;-58
2022/03/16 00:52:44;;;;;;;29.53;12.23;;;5.00;99.90;;;;;;5019527;28;20175;-59
2022/03/16 00:55:10;;;;;;;17.37;11.97;;;5.00;99.90;;;;;;5029062;28;20687;-57
2022/03/16 00:57:36;;;;;;;18.27;10.40;;;5.00;99.90;;;;;;5014005;28;20645;-59
2022/03/16 01:00:03;;;;;;;32.50;11.67;;;5.00;99.90;;;;;;5013748;28;20172;-59
2022/03/16 01:02:28;;;;;;;20.70;10.43;;;4.90;99.90;;;;;;5023742;28;20266;-59
2022/03/16 01:04:54;;;;;;;21.30;11.03;;;4.90;99.90;;;;;;5026492;28;20549;-57
2022/03/16 01:07:19;;;;;;;26.03;11.00;;;4.90;99.90;;;;;;5026784;28;20179;-58
2022/03/16 01:09:45;;;;;;;31.53;11.10;;;4.90;99.90;;;;;;5025576;28;20267;-59
2022/03/16 01:12:11;;;;;;;30.17;11.40;;;4.90;99.90;;;;;;5029203;28;20251;-58
2022/03/16 01:14:37;;;;;;;45.20;12.30;;;4.80;99.90;;;;;;5028552;28;20172;-58
2022/03/16 01:17:03;;;;;;;43.37;12.80;;;4.80;99.90;;;;;;5031431;28;20604;-58
2022/03/16 01:19:29;;;;;;;49.50;13.00;;;4.80;99.90;;;;;;5022054;28;20461;-57
2022/03/16 01:21:55;;;;;;;52.60;12.57;;;4.80;99.90;;;;;;5021449;28;20441;-58
2022/03/16 01:24:21;;;;;;;37.90;12.00;;;4.70;99.90;;;;;;5026521;28;20498;-59
2022/03/16 01:26:46;;;;;;;32.43;12.37;;;4.70;99.90;;;;;;5025710;28;20484;-57
2022/03/16 01:29:12;;;;;;;39.00;11.23;;;4.70;99.90;;;;;;5032093;28;20595;-58
2022/03/16 01:31:38;;;;;;;29.60;11.80;;;4.70;99.90;;;;;;5028637;28;20198;-58
2022/03/16 01:34:04;;;;;;;22.03;11.33;;;4.70;99.90;;;;;;5026798;28;20183;-58
2022/03/16 01:36:30;;;;;;;25.93;11.67;;;4.70;99.90;;;;;;5026081;28;20216;-59
2022/03/16 01:38:55;;;;;;;23.87;11.87;;;4.60;99.90;;;;;;5018753;28;20914;-59
2022/03/16 01:41:21;;;;;;;17.70;10.20;;;4.70;99.90;;;;;;5032771;28;20160;-57
2022/03/16 01:43:46;;;;;;;18.60;11.07;;;4.70;99.90;;;;;;5026212;28;20258;-59
2022/03/16 01:46:12;;;;;;;20.40;11.57;;;4.70;99.90;;;;;;5029286;28;20663;-57
2022/03/16 01:48:38;;;;;;;25.37;11.10;;;4.70;99.90;;;;;;5030257;28;20711;-59
2022/03/16 01:51:03;;;;;;;19.77;11.50;;;4.70;99.90;;;;;;5029797;28;20202;-59
2022/03/16 01:53:29;;;;;;;39.73;12.07;;;4.60;99.90;;;;;;5020449;28;20219;-60
2022/03/16 01:55:55;;;;;;;41.50;12.00;;;4.60;99.90;;;;;;5023680;28;20207;-59
2022/03/16 01:58:21;;;;;;;19.17;9.37;;;4.50;99.90;;;;;;5023586;28;20427;-59
2022/03/16 02:00:47;;;;;;;20.67;10.73;;;4.50;99.90;;;;;;5034361;28;20765;-59
2022/03/16 02:03:13;;;;;;;31.77;11.50;;;4.40;99.90;;;;;;5029164;28;20609;-59
2022/03/16 02:05:39;;;;;;;28.63;11.87;;;4.40;99.90;;;;;;5032222;28;20454;-58
2022/03/16 02:08:08;;;;;;;53.23;11.30;;;4.30;99.90;;;;;;5031178;28;20204;-59
2022/03/16 02:10:33;;;;;;;31.87;9.47;;;4.30;99.90;;;;;;5032187;28;20472;-59
2022/03/16 02:12:59;;;;;;;41.43;10.90;;;4.30;99.90;;;;;;5034829;28;20838;-59
2022/03/16 02:15:25;;;;;;;25.03;9.63;;;4.30;99.90;;;;;;5029982;28;20207;-59
2022/03/16 02:17:54;;;;;;;42.77;11.40;;;4.20;99.90;;;;;;5027952;28;20484;-59
2022/03/16 02:20:24;;;;;;;32.50;10.67;;;4.20;99.90;;;;;;5024016;28;20470;-59
2022/03/16 02:22:58;;;;;;;44.77;11.07;;;4.20;99.90;;;;;;5023812;28;20445;-59
2022/03/16 02:25:25;;;;;;;42.07;9.87;;;4.20;99.90;;;;;;5013334;28;20466;-57
2022/03/16 02:27:54;;;;;;;66.77;10.73;;;4.20;99.90;;;;;;5023414;28;20788;-57
2022/03/16 02:30:22;;;;;;;29.67;10.03;;;4.20;99.90;;;;;;5033512;28;20448;-58
2022/03/16 02:32:48;;;;;;;56.27;10.80;;;4.20;99.90;;;;;;5027889;28;21063;-59
2022/03/16 02:35:14;;;;;;;23.93;9.83;;;4.20;99.90;;;;;;5028824;28;20458;-58
2022/03/16 02:37:40;;;;;;;31.17;10.20;;;4.20;99.90;;;;;;5022615;28;20690;-59
2022/03/16 02:40:08;;;;;;;19.37;9.70;;;4.20;99.90;;;;;;5030727;28;20433;-59
2022/03/16 02:42:35;;;;;;;39.63;11.30;;;4.20;99.90;;;;;;5024339;28;20442;-59
2022/03/16 02:45:00;;;;;;;22.53;10.00;;;4.20;99.90;;;;;;5029917;28;20473;-59
2022/03/16 02:47:27;;;;;;;58.27;12.37;;;4.10;99.90;;;;;;5017739;28;20432;-58
2022/03/16 02:49:54;;;;;;;20.50;9.93;;;4.10;99.90;;;;;;5027623;28;20441;-60
2022/03/16 02:52:21;;;;;;;18.93;9.60;;;4.10;99.90;;;;;;5020617;28;20457;-59
2022/03/16 02:54:47;;;;;;;44.37;11.03;;;4.10;99.90;;;;;;5020232;28;20454;-59
2022/03/16 02:57:16;;;;;;;36.23;10.70;;;4.00;99.90;;;;;;5024579;28;20594;-59
2022/03/16 02:59:42;;;;;;;52.13;12.60;;;4.00;99.90;;;;;;5025130;28;20174;-59
2022/03/16 03:02:08;;;;;;;57.87;11.07;;;4.00;99.90;;;;;;5022086;28;21523;-59
2022/03/16 03:04:34;;;;;;;51.63;11.03;;;4.00;99.90;;;;;;5021703;28;20504;-58
2022/03/16 03:06:59;;;;;;;28.37;12.40;;;3.90;99.90;;;;;;5041360;28;20455;-59
2022/03/16 03:09:25;;;;;;;28.70;12.47;;;3.90;99.90;;;;;;5037266;28;20205;-59
2022/03/16 03:11:51;;;;;;;26.40;12.03;;;3.90;99.90;;;;;;5033142;28;20198;-59
2022/03/16 03:14:17;;;;;;;35.07;11.03;;;3.90;99.90;;;;;;5026512;28;20484;-58
2022/03/16 03:16:43;;;;;;;70.87;12.43;;;3.90;99.90;;;;;;5042658;28;20534;-59
2022/03/16 03:19:09;;;;;;;67.93;12.53;;;3.90;99.90;;;;;;5028452;28;20261;-58
2022/03/16 03:21:34;;;;;;;37.93;10.67;;;3.80;99.90;;;;;;5024428;28;20380;-59
2022/03/16 03:24:00;;;;;;;45.73;10.50;;;3.80;99.90;;;;;;5031631;28;20262;-58
2022/03/16 03:26:26;;;;;;;38.13;9.80;;;3.80;99.90;;;;;;5029307;28;20699;-59
2022/03/16 03:28:51;;;;;;;46.57;12.40;;;3.70;99.90;;;;;;5026908;28;20830;-58
2022/03/16 03:31:17;;;;;;;21.57;10.30;;;3.70;99.90;;;;;;5036943;28;20267;-59
2022/03/16 03:33:43;;;;;;;22.07;10.20;;;3.70;99.90;;;;;;5031010;28;20183;-59
2022/03/16 03:36:08;;;;;;;21.27;11.10;;;3.70;99.90;;;;;;5027552;28;20479;-59
2022/03/16 03:38:34;;;;;;;45.60;11.10;;;3.70;99.90;;;;;;5027608;28;20183;-60
2022/03/16 03:41:00;;;;;;;23.47;11.30;;;3.70;99.90;;;;;;5031091;28;20184;-58
2022/03/16 03:43:26;;;;;;;31.90;11.03;;;3.70;99.90;;;;;;5026954;28;22099;-59
2022/03/16 03:45:51;;;;;;;38.27;10.90;;;3.70;99.90;;;;;;5028667;28;20302;-59
2022/03/16 03:48:17;;;;;;;35.17;10.63;;;3.70;99.90;;;;;;5028190;28;20309;-59
2022/03/16 03:50:43;;;;;;;74.13;11.30;;;3.70;99.90;;;;;;5034685;28;20171;-58
2022/03/16 03:53:08;;;;;;;72.03;11.13;;;3.70;99.90;;;;;;5023002;28;20347;-59
2022/03/16 03:55:34;;;;;;;84.13;12.20;;;3.70;99.90;;;;;;5019573;28;20217;-59
2022/03/16 03:57:59;;;;;;;43.40;11.77;;;3.60;99.90;;;;;;5040575;28;20189;-58
2022/03/16 04:00:25;;;;;;;82.37;10.90;;;3.60;99.90;;;;;;5026025;28;20183;-59
2022/03/16 04:02:51;;;;;;;67.40;12.23;;;3.60;99.90;;;;;;5024431;28;20701;-58
2022/03/16 04:05:18;;;;;;;57.27;12.00;;;3.60;99.90;;;;;;5036591;28;20689;-59
2022/03/16 04:07:44;;;;;;;72.00;10.90;;;3.50;99.90;;;;;;5025197;28;20439;-59
2022/03/16 04:10:10;;;;;;;104.60;13.00;;;3.50;99.90;;;;;;5024374;28;20937;-59
2022/03/16 04:12:36;;;;;;;79.87;11.47;;;3.50;99.90;;;;;;5022627;28;20431;-59
2022/03/16 04:15:03;;;;;;;27.77;11.27;;;3.50;99.90;;;;;;5031486;28;20959;-58
2022/03/16 04:17:29;;;;;;;36.23;10.40;;;3.50;99.90;;;;;;5023650;28;20437;-59
2022/03/16 04:19:54;;;;;;;30.87;10.50;;;3.50;99.90;;;;;;5027678;28;20489;-57
2022/03/16 04:22:20;;;;;;;24.10;11.00;;;3.50;99.90;;;;;;5032124;28;20179;-59
2022/03/16 04:24:46;;;;;;;18.63;10.80;;;3.50;99.90;;;;;;5041162;28;20679;-59
2022/03/16 04:27:11;;;;;;;18.70;10.90;;;3.50;99.90;;;;;;5041227;28;20172;-59
2022/03/16 04:29:37;;;;;;;32.07;10.37;;;3.50;99.90;;;;;;5025760;28;20182;-57
2022/03/16 04:32:03;;;;;;;31.10;11.93;;;3.50;99.90;;;;;;5019414;28;20521;-58
2022/03/16 04:34:29;;;;;;;31.10;12.47;;;3.40;99.90;;;;;;5019565;28;20184;-60
2022/03/16 04:36:54;;;;;;;28.80;12.20;;;3.40;99.90;;;;;;5034821;28;20498;-58
2022/03/16 04:39:20;;;;;;;29.53;11.60;;;3.40;99.90;;;;;;5038798;28;20179;-58
2022/03/16 04:41:46;;;;;;;16.47;10.80;;;3.40;99.90;;;;;;5012360;28;20743;-59
2022/03/16 04:44:11;;;;;;;21.67;12.20;;;3.40;99.90;;;;;;5023125;28;20638;-56
2022/03/16 04:46:37;;;;;;;32.47;11.10;;;3.40;99.90;;;;;;5024809;28;20199;-59
2022/03/16 04:49:03;;;;;;;22.70;11.80;;;3.40;99.90;;;;;;5019530;28;20191;-57
2022/03/16 04:51:28;;;;;;;28.30;12.33;;;3.30;99.90;;;;;;5027048;28;20187;-59
2022/03/16 04:53:54;;;;;;;32.30;11.37;;;3.40;99.90;;;;;;5026231;28;20234;-58
2022/03/16 04:56:20;;;;;;;29.63;11.40;;;3.40;99.90;;;;;;5027253;28;20220;-58
2022/03/16 04:58:45;;;;;;;66.20;13.20;;;3.40;99.90;;;;;;5022608;28;20192;-58
2022/03/16 05:01:11;;;;;;;159.90;14.87;;;3.40;99.90;;;;;;5022462;28;20193;-58
2022/03/16 05:03:37;;;;;;;67.33;12.10;;;3.40;99.90;;;;;;5023194;28;20194;-59
2022/03/16 05:06:02;;;;;;;52.70;11.60;;;3.30;99.90;;;;;;5024750;28;20286;-57
2022/03/16 05:08:28;;;;;;;39.53;10.27;;;3.30;99.90;;;;;;5026557;28;20259;-59
2022/03/16 05:10:54;;;;;;;37.10;10.60;;;3.30;99.90;;;;;;5025371;28;20189;-58
2022/03/16 05:13:19;;;;;;;29.53;11.20;;;3.30;99.90;;;;;;5026097;28;20186;-59
2022/03/16 05:15:47;;;;;;;42.87;10.90;;;3.30;99.90;;;;;;5013464;28;20221;-56
2022/03/16 05:18:13;;;;;;;43.03;11.30;;;3.20;99.90;;;;;;5019117;28;21737;-56
2022/03/16 05:20:38;;;;;;;54.13;10.70;;;3.20;99.90;;;;;;5011961;28;20477;-59
2022/03/16 05:23:04;;;;;;;39.50;10.33;;;3.20;99.90;;;;;;5015691;28;20184;-59
2022/03/16 05:25:33;;;;;;;26.80;11.47;;;3.20;99.90;;;;;;5016795;28;20214;-60
2022/03/16 05:27:59;;;;;;;48.00;10.70;;;3.20;99.90;;;;;;5016562;28;20214;-59
2022/03/16 05:30:27;;;;;;;42.20;11.57;;;3.10;99.90;;;;;;5016431;28;20442;-59
2022/03/16 05:32:54;;;;;;;17.63;10.23;;;3.10;99.90;;;;;;5015087;28;20443;-59
2022/03/16 05:35:21;;;;;;;23.33;11.67;;;3.10;99.90;;;;;;5021529;28;20471;-59
2022/03/16 05:37:46;;;;;;;41.53;13.10;;;3.10;99.90;;;;;;5008723;28;20826;-57
2022/03/16 05:40:13;;;;;;;47.90;12.47;;;3.10;99.90;;;;;;5013615;28;20488;-59
2022/03/16 05:42:38;;;;;;;23.10;11.43;;;3.10;99.90;;;;;;5030194;28;20555;-58
2022/03/16 05:45:06;;;;;;;33.93;11.07;;;3.00;99.90;;;;;;5015511;28;20481;-59
2022/03/16 05:47:32;;;;;;;43.63;12.70;;;3.00;99.90;;;;;;5008958;28;20187;-59
2022/03/16 05:49:58;;;;;;;31.10;12.43;;;3.00;99.90;;;;;;5016210;28;20439;-59
2022/03/16 05:52:25;;;;;;;35.63;11.50;;;3.00;99.90;;;;;;5023154;28;20445;-58
2022/03/16 05:54:53;;;;;;;59.10;12.80;;;3.00;99.90;;;;;;5015467;28;20227;-59
2022/03/16 05:57:20;;;;;;;30.30;11.67;;;3.00;99.90;;;;;;5025313;28;20450;-60
2022/03/16 05:59:51;;;;;;;51.93;12.77;;;3.00;99.90;;;;;;5023864;28;20854;-59
2022/03/16 06:02:17;;;;;;;41.43;11.67;;;3.10;99.90;;;;;;5018301;28;20454;-59
2022/03/16 06:04:43;;;;;;;31.63;11.10;;;3.10;99.90;;;;;;5040108;28;20451;-60
2022/03/16 06:07:10;;;;;;;53.20;10.73;;;3.10;99.90;;;;;;5018130;28;20430;-59
2022/03/16 06:09:36;;;;;;;46.70;11.87;;;3.10;99.90;;;;;;5019711;28;20453;-59
2022/03/16 06:12:03;;;;;;;30.83;10.97;;;3.10;99.90;;;;;;5023367;28;22306;-59
2022/03/16 06:14:29;;;;;;;27.97;11.80;;;3.10;99.90;;;;;;5024687;28;20443;-58
2022/03/16 06:16:55;;;;;;;40.10;11.10;;;3.10;99.90;;;;;;5012033;28;21013;-58
2022/03/16 06:19:22;;;;;;;22.70;11.47;;;3.10;99.90;;;;;;5016333;28;20436;-58
2022/03/16 06:21:48;;;;;;;33.00;13.80;;;3.10;99.90;;;;;;5015476;28;21096;-58
2022/03/16 06:24:14;;;;;;;29.67;11.53;;;3.10;99.90;;;;;;5014212;28;20914;-59
2022/03/16 06:26:41;;;;;;;54.70;14.43;;;3.10;99.90;;;;;;5018392;28;20452;-61
2022/03/16 06:29:07;;;;;;;34.87;12.57;;;3.10;99.90;;;;;;5017232;28;20436;-61
2022/03/16 06:31:34;;;;;;;30.53;11.80;;;3.10;99.90;;;;;;5021566;28;20473;-63
2022/03/16 06:33:59;;;;;;;51.20;13.03;;;3.10;99.90;;;;;;5025428;28;20958;-60
2022/03/16 06:36:26;;;;;;;53.43;14.07;;;3.10;99.90;;;;;;5019817;28;20489;-60
2022/03/16 06:38:52;;;;;;;31.13;12.00;;;3.20;99.90;;;;;;5023306;28;20664;-60
2022/03/16 06:41:18;;;;;;;35.17;11.80;;;3.20;99.90;;;;;;5022092;28;20460;-59
2022/03/16 06:43:44;;;;;;;41.90;12.27;;;3.20;99.90;;;;;;5023883;28;20914;-61
2022/03/16 06:46:09;;;;;;;27.60;11.53;;;3.20;99.90;;;;;;5024114;28;20281;-59
2022/03/16 06:48:35;;;;;;;36.93;11.93;;;3.30;99.90;;;;;;5023387;28;20259;-60
2022/03/16 06:51:02;;;;;;;47.00;14.00;;;3.30;99.90;;;;;;5025918;28;20255;-60
2022/03/16 06:53:28;;;;;;;28.40;12.07;;;3.40;99.90;;;;;;5024464;28;20750;-60
2022/03/16 06:55:54;;;;;;;32.73;12.10;;;3.40;99.90;;;;;;5020275;28;21230;-58
2022/03/16 06:58:20;;;;;;;17.50;11.27;;;3.40;99.90;;;;;;5023967;28;21188;-60
2022/03/16 07:00:45;;;;;;;18.90;11.90;;;3.40;99.90;;;;;;5023280;28;20443;-59
2022/03/16 07:03:11;;;;;;;19.63;12.10;;;3.40;99.90;;;;;;5020498;28;20188;-59
2022/03/16 07:05:38;;;;;;;22.43;11.60;;;3.50;99.90;;;;;;5017706;28;20236;-57
2022/03/16 07:08:07;;;;;;;16.93;10.93;;;3.50;99.90;;;;;;5016604;28;20260;-60
2022/03/16 07:10:34;;;;;;;32.63;12.90;;;3.60;99.90;;;;;;5021421;28;20946;-59
2022/03/16 07:13:00;;;;;;;57.80;13.27;;;3.60;99.90;;;;;;5016738;28;20437;-61
2022/03/16 07:15:27;;;;;;;18.27;11.50;;;3.60;99.90;;;;;;5019445;28;20556;-60
2022/03/16 07:17:52;;;;;;;20.00;11.30;;;3.70;99.90;;;;;;5018910;28;20438;-61
2022/03/16 07:20:18;;;;;;;47.50;12.97;;;3.70;99.90;;;;;;5019393;28;20439;-60
2022/03/16 07:22:44;;;;;;;34.13;13.10;;;3.80;99.90;;;;;;5017894;28;20270;-60
2022/03/16 07:25:10;;;;;;;40.00;13.90;;;3.80;99.90;;;;;;5020360;28;20673;-58
2022/03/16 07:27:40;;;;;;;32.63;14.20;;;3.80;99.90;;;;;;5021494;28;20242;-60
2022/03/16 07:30:07;;;;;;;31.60;12.07;;;3.90;99.90;;;;;;5019020;28;20436;-60
2022/03/16 07:32:40;;;;;;;15.80;10.80;;;3.90;99.90;;;;;;5014752;28;20500;-59
2022/03/16 07:35:09;;;;;;;16.30;10.60;;;4.00;99.90;;;;;;5016509;28;20545;-60
2022/03/16 07:37:35;;;;;;;17.43;12.03;;;4.10;99.90;;;;;;5019320;28;20546;-59
2022/03/16 07:40:01;;;;;;;24.77;11.93;;;4.10;99.90;;;;;;5018553;28;20486;-58
2022/03/16 07:42:26;;;;;;;22.90;11.23;;;4.20;99.90;;;;;;5020414;28;20979;-60
2022/03/16 07:44:52;;;;;;;13.80;10.27;;;4.30;99.90;;;;;;5020808;28;20219;-60
2022/03/16 07:47:18;;;;;;;12.97;8.93;;;4.40;99.90;;;;;;5015041;28;20689;-60
2022/03/16 07:49:43;;;;;;;14.90;9.20;;;4.50;99.90;;;;;;5018165;28;20184;-60
2022/03/16 07:52:09;;;;;;;10.80;8.57;;;4.60;99.90;;;;;;5013689;28;20188;-59
2022/03/16 07:54:34;;;;;;;15.43;9.00;;;4.70;99.90;;;;;;5016116;28;20721;-61
2022/03/16 07:57:00;;;;;;;12.83;8.93;;;4.80;99.90;;;;;;5018402;28;20188;-60
2022/03/16 07:59:26;;;;;;;15.43;10.20;;;4.90;99.90;;;;;;5028824;28;20175;-59
2022/03/16 08:01:51;;;;;;;16.33;11.40;;;4.90;99.90;;;;;;5013843;28;20176;-60
2022/03/16 08:04:17;;;;;;;15.63;11.13;;;5.00;99.90;;;;;;5012344;28;20211;-63
2022/03/16 08:06:43;;;;;;;16.53;11.27;;;5.10;99.90;;;;;;5017908;28;20203;-62
2022/03/16 08:09:08;;;;;;;15.47;10.80;;;5.20;99.90;;;;;;5017753;28;20186;-62
2022/03/16 08:11:34;;;;;;;21.13;12.07;;;5.30;99.90;;;;;;5024869;28;20168;-61
2022/03/16 08:14:00;;;;;;;19.77;13.07;;;5.40;99.90;;;;;;5022215;28;20664;-62
2022/03/16 08:16:25;;;;;;;16.60;10.93;;;5.50;99.90;;;;;;5013886;28;20211;-61
2022/03/16 08:18:51;;;;;;;16.47;10.03;;;5.60;99.90;;;;;;5020018;28;20180;-62
2022/03/16 08:21:16;;;;;;;15.87;11.17;;;5.70;99.90;;;;;;5019431;28;20181;-63
2022/03/16 08:23:42;;;;;;;17.73;11.50;;;5.80;99.90;;;;;;5019633;28;20569;-62
2022/03/16 08:26:08;;;;;;;15.10;10.73;;;5.80;99.90;;;;;;5012029;28;20787;-62
2022/03/16 08:28:33;;;;;;;15.60;11.47;;;5.90;99.90;;;;;;5021142;28;20740;-62
2022/03/16 08:31:01;;;;;;;18.80;11.70;;;6.00;99.90;;;;;;5018139;28;20172;-62
2022/03/16 08:33:27;;;;;;;22.27;12.00;;;6.10;99.90;;;;;;5018532;28;20171;-62
2022/03/16 08:35:52;;;;;;;19.23;11.97;;;6.30;99.90;;;;;;5016933;28;20458;-61
2022/03/16 08:38:18;;;;;;;19.80;11.90;;;6.40;99.90;;;;;;5017081;28;20180;-62
2022/03/16 08:40:44;;;;;;;18.47;11.90;;;6.50;99.90;;;;;;5018242;28;20262;-62
2022/03/16 08:43:10;;;;;;;21.63;11.90;;;6.70;99.90;;;;;;5017474;28;20228;-62
2022/03/16 08:45:36;;;;;;;26.50;12.37;;;6.80;99.90;;;;;;5018944;28;20223;-62
2022/03/16 08:48:03;;;;;;;23.37;12.70;;;7.00;99.90;;;;;;5018998;28;20551;-63
2022/03/16 08:50:30;;;;;;;24.83;13.57;;;7.10;99.90;;;;;;5030333;28;20176;-62
2022/03/16 08:52:57;;;;;;;22.47;13.20;;;7.30;99.90;;;;;;5018855;28;20430;-62
2022/03/16 08:55:23;;;;;;;28.70;13.00;;;7.50;99.90;;;;;;5019420;28;20842;-61
2022/03/16 08:57:49;;;;;;;27.70;13.80;;;7.60;99.90;;;;;;5016501;28;20438;-62
2022/03/16 09:00:15;;;;;;;32.10;14.47;;;7.70;99.90;;;;;;5020720;28;20449;-62
2022/03/16 09:02:45;;;;;;;22.53;11.90;;;7.80;99.90;;;;;;5014613;28;20824;-64
2022/03/16 09:05:12;;;;;;;23.57;13.57;;;7.90;99.90;;;;;;5015417;28;20977;-62
2022/03/16 09:07:38;;;;;;;21.03;13.27;;;8.00;99.90;;;;;;5020550;28;20466;-62
2022/03/16 09:10:06;;;;;;;22.70;13.70;;;8.10;99.90;;;;;;5016324;28;20461;-62
2022/03/16 09:12:31;;;;;;;24.50;14.47;;;8.10;99.90;;;;;;5018345;28;20438;-62
2022/03/16 09:14:57;;;;;;;22.33;12.90;;;8.20;99.90;;;;;;5014468;28;20463;-63
2022/03/16 09:17:23;;;;;;;24.40;13.77;;;8.20;99.90;;;;;;5020618;28;20645;-62
2022/03/16 09:19:48;;;;;;;23.20;13.50;;;8.30;99.90;;;;;;5012890;28;20555;-61
2022/03/16 09:22:14;;;;;;;28.20;15.63;;;8.30;99.90;;;;;;5013101;28;20187;-62
2022/03/16 09:24:40;;;;;;;26.43;14.27;;;8.40;99.90;;;;;;5014440;28;20258;-61
2022/03/16 09:27:06;;;;;;;33.53;17.87;;;8.40;99.90;;;;;;5011852;28;20263;-60
2022/03/16 09:29:32;;;;;;;37.53;18.60;;;8.60;99.90;;;;;;5018229;28;20184;-62
2022/03/16 09:31:58;;;;;;;37.47;18.00;;;8.70;99.90;;;;;;5019571;28;20430;-62
2022/03/16 09:34:24;;;;;;;34.30;17.50;;;8.70;99.90;;;;;;5018033;28;20211;-64
2022/03/16 09:36:50;;;;;;;33.70;18.27;;;8.80;99.90;;;;;;5017601;28;20299;-63
2022/03/16 09:41:42;;;;;;;29.40;16.17;;;8.90;99.90;;;;;;5042939;23;20493;-61
2022/03/16 09:44:09;;;;;;;30.33;16.57;;;9.00;99.90;;;;;;5020510;28;20954;-60
2022/03/16 09:46:36;;;;;;;31.10;16.80;;;9.10;99.90;;;;;;5017663;28;20558;-63
2022/03/16 09:49:07;;;;;;;28.30;16.20;;;9.30;99.90;;;;;;5024005;28;20457;-60
2022/03/16 09:51:35;;;;;;;27.43;16.37;;;9.30;99.90;;;;;;5014515;28;21080;-62
2022/03/16 09:54:03;;;;;;;28.47;16.13;;;9.30;99.90;;;;;;5014232;28;20435;-59
2022/03/16 09:56:30;;;;;;;34.73;18.00;;;9.40;99.90;;;;;;5025687;28;20515;-59
2022/03/16 09:58:55;;;;;;;35.17;17.57;;;9.50;99.90;;;;;;5021073;28;20903;-59
2022/03/16 10:01:21;;;;;;;31.03;17.10;;;9.60;99.90;;;;;;5022164;28;20519;-65
2022/03/16 10:03:48;;;;;;;35.70;17.87;;;9.70;99.90;;;;;;5017277;28;20187;-59
2022/03/16 10:06:16;;;;;;;30.70;18.07;;;9.80;99.90;;;;;;5022468;28;20214;-59
2022/03/16 10:13:13;;;;;;;27.33;16.67;;;9.90;99.90;;;;;;5022450;28;20431;-60
2022/03/16 10:14:16;;;;;;;29.00;16.40;;;10.00;99.90;;;;;;5017494;28;20438;-59
2022/03/16 10:19:52;;;;;;;33.63;20.10;;;10.10;99.90;;;;;;5020887;28;20810;-60
2022/03/16 10:22:25;;;;;;;32.43;17.57;;;10.20;99.90;;;;;;5021456;28;20430;-58
2022/03/16 10:25:02;;;;;;;31.90;17.27;;;10.30;99.90;;;;;;5019281;28;20473;-60
2022/03/16 10:27:28;;;;;;;33.63;17.77;;;10.30;99.90;;;;;;5018975;28;20427;-58
2022/03/16 10:29:55;;;;;;;32.27;18.13;;;10.30;99.90;;;;;;5016971;28;20450;-59
2022/03/16 10:32:24;;;;;;;30.53;17.53;;;10.40;99.90;;;;;;5022346;28;20451;-63
2022/03/16 10:34:55;;;;;;;27.60;16.77;;;10.40;99.90;;;;;;5023203;28;21222;-62
2022/03/16 10:37:22;;;;;;;31.97;17.57;;;10.50;99.90;;;;;;5015785;28;20453;-60
2022/03/16 10:39:52;;;;;;;25.50;16.50;;;10.50;99.90;;;;;;5019353;28;20462;-60
2022/03/16 10:48:19;;;;;;;34.27;16.90;;;10.60;99.90;;;;;;5019729;28;20942;-58
2022/03/16 10:50:46;;;;;;;37.03;18.07;;;10.60;99.90;;;;;;5018756;28;20462;-56
2022/03/16 10:53:14;;;;;;;42.20;16.27;;;10.70;99.90;;;;;;5016574;28;20929;-58
2022/03/16 10:55:40;;;;;;;30.30;16.30;;;10.80;99.90;;;;;;5010692;28;20440;-60
2022/03/16 10:58:07;;;;;;;30.77;17.40;;;10.80;99.90;;;;;;5014187;28;21122;-59
2022/03/16 11:00:37;;;;;;;30.57;16.00;;;10.90;99.90;;;;;;5009970;28;20199;-59
2022/03/16 11:03:06;;;;;;;27.60;16.50;;;10.90;99.90;;;;;;5025414;28;20426;-59
2022/03/16 11:05:36;;;;;;;31.67;17.13;;;10.90;99.90;;;;;;5015982;28;20472;-59
2022/03/16 11:08:07;;;;;;;24.90;14.83;;;10.90;99.90;;;;;;5013757;28;20596;-58
2022/03/16 11:10:41;;;;;;;29.63;16.30;;;10.90;99.90;;;;;;5016072;28;20549;-59
2022/03/16 11:15:53;;;;;;;28.67;15.73;;;11.00;99.90;;;;;;5018996;28;20481;-59
2022/03/16 11:18:20;;;;;;;27.40;16.67;;;11.00;99.90;;;;;;5016125;28;21008;-59
2022/03/16 11:20:50;;;;;;;29.40;15.73;;;11.00;99.90;;;;;;5012205;28;20554;-59
2022/03/16 11:26:24;;;;;;;32.10;16.10;;;11.10;99.90;;;;;;5012367;28;21014;-61
2022/03/16 11:29:12;;;;;;;27.27;15.43;;;11.10;99.90;;;;;;5013922;28;20486;-56
2022/03/16 11:31:42;;;;;;;25.60;15.40;;;11.10;99.90;;;;;;5018575;28;20449;-59
2022/03/16 11:34:10;;;;;;;29.00;16.10;;;11.20;99.90;;;;;;5014347;28;20558;-59
2022/03/16 11:36:40;;;;;;;31.23;16.60;;;11.20;99.90;;;;;;5016078;28;20938;-59
2022/03/16 11:39:21;;;;;;;27.83;15.07;;;11.20;99.90;;;;;;5009631;28;20473;-58
2022/03/16 11:41:53;;;;;;;31.50;15.60;;;11.20;99.90;;;;;;5007658;28;20430;-57
2022/03/16 11:44:25;;;;;;;28.20;16.60;;;11.30;99.90;;;;;;5006664;28;20438;-57
2022/03/16 11:47:09;;;;;;;24.90;15.10;;;11.30;99.90;;;;;;5009295;28;20498;-59
2022/03/16 11:49:56;;;;;;;32.30;16.40;;;11.30;99.90;;;;;;5011052;28;20426;-58
2022/03/16 11:52:22;;;;;;;28.97;15.00;;;11.40;99.90;;;;;;5004354;28;21164;-58
2022/03/16 11:54:49;;;;;;;31.83;16.07;;;11.40;99.90;;;;;;5027743;28;20517;-58
2022/03/16 11:57:51;;;;;;;28.27;15.53;;;11.40;99.90;;;;;;5009268;28;20267;-59
2022/03/16 12:00:17;;;;;;;22.33;14.50;;;11.40;99.90;;;;;;5011886;28;20468;-60
2022/03/16 12:02:58;;;;;;;31.00;16.00;;;11.50;99.90;;;;;;5011280;28;20450;-62
2022/03/16 12:05:26;;;;;;;27.50;16.50;;;11.50;99.90;;;;;;5009924;28;20458;-61
2022/03/16 12:08:12;;;;;;;28.30;16.47;;;11.60;99.90;;;;;;5009653;28;20446;-64
2022/03/16 12:12:50;;;;;;;29.10;15.47;;;11.60;99.90;;;;;;5003051;28;20451;-60
2022/03/16 12:13:42;;;;;;;29.20;15.60;;;11.60;99.90;;;;;;5009455;28;21251;-63
2022/03/16 12:16:08;;;;;;;26.70;15.13;;;11.60;99.90;;;;;;5010345;28;20446;-61
2022/03/16 12:18:39;;;;;;;23.87;15.30;;;11.60;99.90;;;;;;5012451;28;20450;-62
2022/03/16 12:21:07;;;;;;;21.27;13.93;;;11.60;99.90;;;;;;5009850;28;20615;-61
2022/03/16 12:23:43;;;;;;;24.37;15.37;;;11.60;99.90;;;;;;5010221;28;20439;-63
2022/03/16 12:26:09;;;;;;;21.60;14.10;;;11.60;99.90;;;;;;5013518;28;20547;-60
2022/03/16 12:31:19;;;;;;;23.30;14.50;;;11.60;99.90;;;;;;5010478;28;20270;-61
2022/03/16 12:33:55;;;;;;;28.17;16.33;;;11.50;99.90;;;;;;5005447;28;20434;-59
2022/03/16 12:36:26;;;;;;;25.77;14.40;;;11.50;99.90;;;;;;5008006;28;20179;-59
2022/03/16 12:39:01;;;;;;;28.13;14.40;;;11.60;99.90;;;;;;5014359;28;20443;-62
2022/03/16 12:44:16;;;;;;;26.57;14.90;;;11.60;99.90;;;;;;5015593;28;20497;-57
2022/03/16 12:46:47;;;;;;;27.13;15.27;;;11.70;99.90;;;;;;5006965;28;20474;-59
2022/03/16 12:49:18;;;;;;;40.20;16.13;;;11.80;99.90;;;;;;5006127;28;20435;-57
2022/03/16 12:51:45;;;;;;;25.07;15.90;;;11.90;99.90;;;;;;5013895;28;20442;-58
2022/03/16 12:54:30;;;;;;;29.20;15.67;;;11.90;99.90;;;;;;5011067;28;20717;-58
2022/03/16 12:57:12;;;;;;;28.27;15.17;;;11.90;99.90;;;;;;5015891;28;20477;-56
2022/03/16 12:59:48;;;;;;;31.20;15.53;;;11.90;99.90;;;;;;5007533;28;20434;-58
2022/03/16 13:02:18;;;;;;;26.50;16.10;;;11.90;99.90;;;;;;5014673;28;20449;-59